sensor_id;sensor_type;location;lat;lon;timestamp;P1;durP1;ratioP1;P2;durP2;ratioP2
27533;SDS011;14973;51.460;7.008;2022-08-01T00:01:49;25.52;;;16.60;;
27533;SDS011;14973;51.460;7.008;2022-08-01T00:04:15;28.80;;;17.52;;
27533;SDS011;14973;51.460;7.008;2022-08-01T00:06:41;26.67;;;18.48;;
27533;SDS011;14973;51.460;7.008;2022-08-01T00:09:06;30.88;;;19.17;;
27533;SDS011;14973;51.460;7.008;2022-08-01T00:11:32;30.35;;;20.80;;
27533;SDS011;14973;51.460;7.008;2022-08-01T00:13:58;27.58;;;19.27;;
27533;SDS011;14973;51.460;7.008;2022-08-01T00:16:23;26.10;;;19.35;;
27533;SDS011;14973;51.460;7.008;2022-08-01T00:18:49;27.63;;;19.58;;
27533;SDS011;14973;51.460;7.008;2022-08-01T00:21:16;34.35;;;19.98;;
27533;SDS011;14973;51.460;7.008;2022-08-01T00:23:42;29.58;;;19.48;;
27533;SDS011;14973;51.460;7.008;2022-08-01T00:26:10;35.13;;;21.15;;
27533;SDS011;14973;51.460;7.008;2022-08-01T00:28:39;37.80;;;23.67;;
27533;SDS011;14973;51.460;7.008;2022-08-01T00:31:05;35.95;;;22.65;;
27533;SDS011;14973;51.460;7.008;2022-08-01T00:33:31;31.02;;;21.75;;
27533;SDS011;14973;51.460;7.008;2022-08-01T00:35:57;30.05;;;20.50;;
27533;SDS011;14973;51.460;7.008;2022-08-01T00:38:22;32.65;;;21.27;;
27533;SDS011;14973;51.460;7.008;2022-08-01T00:40:48;31.85;;;21.42;;
27533;SDS011;14973;51.460;7.008;2022-08-01T00:43:14;34.55;;;21.60;;
27533;SDS011;14973;51.460;7.008;2022-08-01T00:45:40;31.73;;;22.05;;
27533;SDS011;14973;51.460;7.008;2022-08-01T00:48:06;31.02;;;21.13;;
27533;SDS011;14973;51.460;7.008;2022-08-01T00:50:31;32.80;;;21.45;;
27533;SDS011;14973;51.460;7.008;2022-08-01T00:52:58;34.55;;;22.00;;
27533;SDS011;14973;51.460;7.008;2022-08-01T00:55:24;39.28;;;23.63;;
27533;SDS011;14973;51.460;7.008;2022-08-01T00:57:56;36.90;;;22.90;;
27533;SDS011;14973;51.460;7.008;2022-08-01T01:00:23;29.13;;;21.92;;
27533;SDS011;14973;51.460;7.008;2022-08-01T01:02:50;40.40;;;22.75;;
27533;SDS011;14973;51.460;7.008;2022-08-01T01:05:16;41.20;;;21.17;;
27533;SDS011;14973;51.460;7.008;2022-08-01T01:08:16;34.10;;;20.00;;
27533;SDS011;14973;51.460;7.008;2022-08-01T01:13:11;32.35;;;19.92;;
27533;SDS011;14973;51.460;7.008;2022-08-01T01:20:52;30.80;;;19.15;;
27533;SDS011;14973;51.460;7.008;2022-08-01T01:23:44;33.58;;;21.05;;
27533;SDS011;14973;51.460;7.008;2022-08-01T01:26:21;34.92;;;20.50;;
27533;SDS011;14973;51.460;7.008;2022-08-01T01:32:09;32.38;;;20.23;;
27533;SDS011;14973;51.460;7.008;2022-08-01T01:34:42;30.38;;;20.98;;
27533;SDS011;14973;51.460;7.008;2022-08-01T01:37:11;31.98;;;19.77;;
27533;SDS011;14973;51.460;7.008;2022-08-01T01:39:40;32.55;;;21.05;;
27533;SDS011;14973;51.460;7.008;2022-08-01T01:42:07;31.15;;;19.98;;
27533;SDS011;14973;51.460;7.008;2022-08-01T01:44:34;36.97;;;21.58;;
27533;SDS011;14973;51.460;7.008;2022-08-01T01:47:02;30.92;;;22.23;;
27533;SDS011;14973;51.460;7.008;2022-08-01T01:49:28;43.60;;;23.42;;
27533;SDS011;14973;51.460;7.008;2022-08-01T01:51:56;35.72;;;24.33;;
27533;SDS011;14973;51.460;7.008;2022-08-01T01:54:23;45.72;;;26.77;;
27533;SDS011;14973;51.460;7.008;2022-08-01T01:56:50;50.00;;;28.05;;
27533;SDS011;14973;51.460;7.008;2022-08-01T01:59:18;41.92;;;26.25;;
27533;SDS011;14973;51.460;7.008;2022-08-01T02:01:46;46.35;;;26.00;;
27533;SDS011;14973;51.460;7.008;2022-08-01T02:04:14;49.72;;;26.48;;
27533;SDS011;14973;51.460;7.008;2022-08-01T02:06:41;42.85;;;24.60;;
27533;SDS011;14973;51.460;7.008;2022-08-01T02:09:08;44.50;;;25.13;;
27533;SDS011;14973;51.460;7.008;2022-08-01T02:11:35;43.67;;;24.48;;
27533;SDS011;14973;51.460;7.008;2022-08-01T02:14:02;41.53;;;24.52;;
27533;SDS011;14973;51.460;7.008;2022-08-01T02:16:29;38.95;;;23.48;;
27533;SDS011;14973;51.460;7.008;2022-08-01T02:18:59;37.17;;;23.58;;
27533;SDS011;14973;51.460;7.008;2022-08-01T02:21:30;48.67;;;22.63;;
27533;SDS011;14973;51.460;7.008;2022-08-01T02:24:07;37.90;;;22.80;;
27533;SDS011;14973;51.460;7.008;2022-08-01T02:26:39;41.58;;;22.77;;
27533;SDS011;14973;51.460;7.008;2022-08-01T02:29:10;40.92;;;22.88;;
27533;SDS011;14973;51.460;7.008;2022-08-01T02:31:41;39.00;;;23.13;;
27533;SDS011;14973;51.460;7.008;2022-08-01T02:34:13;35.53;;;22.48;;
27533;SDS011;14973;51.460;7.008;2022-08-01T02:36:43;41.20;;;23.15;;
27533;SDS011;14973;51.460;7.008;2022-08-01T02:39:11;40.33;;;23.10;;
27533;SDS011;14973;51.460;7.008;2022-08-01T02:41:40;38.05;;;22.15;;
27533;SDS011;14973;51.460;7.008;2022-08-01T02:44:09;39.63;;;22.40;;
27533;SDS011;14973;51.460;7.008;2022-08-01T02:46:36;37.47;;;22.77;;
27533;SDS011;14973;51.460;7.008;2022-08-01T02:49:06;45.17;;;22.13;;
27533;SDS011;14973;51.460;7.008;2022-08-01T02:51:34;52.30;;;26.02;;
27533;SDS011;14973;51.460;7.008;2022-08-01T02:54:01;43.75;;;24.58;;
27533;SDS011;14973;51.460;7.008;2022-08-01T02:56:29;48.47;;;25.45;;
27533;SDS011;14973;51.460;7.008;2022-08-01T02:59:07;45.42;;;26.00;;
27533;SDS011;14973;51.460;7.008;2022-08-01T03:01:36;53.13;;;28.17;;
27533;SDS011;14973;51.460;7.008;2022-08-01T03:04:04;50.00;;;27.38;;
27533;SDS011;14973;51.460;7.008;2022-08-01T03:06:31;56.20;;;27.73;;
27533;SDS011;14973;51.460;7.008;2022-08-01T03:08:58;58.75;;;30.17;;
27533;SDS011;14973;51.460;7.008;2022-08-01T03:11:26;53.53;;;29.08;;
27533;SDS011;14973;51.460;7.008;2022-08-01T03:13:55;57.90;;;30.15;;
27533;SDS011;14973;51.460;7.008;2022-08-01T03:16:21;54.63;;;30.65;;
27533;SDS011;14973;51.460;7.008;2022-08-01T03:18:51;57.47;;;29.80;;
27533;SDS011;14973;51.460;7.008;2022-08-01T03:21:20;55.65;;;30.45;;
27533;SDS011;14973;51.460;7.008;2022-08-01T03:23:48;54.75;;;31.60;;
27533;SDS011;14973;51.460;7.008;2022-08-01T03:26:16;57.63;;;30.95;;
27533;SDS011;14973;51.460;7.008;2022-08-01T03:28:44;65.15;;;32.90;;
27533;SDS011;14973;51.460;7.008;2022-08-01T03:31:12;54.85;;;29.58;;
27533;SDS011;14973;51.460;7.008;2022-08-01T03:33:39;54.25;;;28.85;;
27533;SDS011;14973;51.460;7.008;2022-08-01T03:36:05;57.55;;;30.45;;
27533;SDS011;14973;51.460;7.008;2022-08-01T03:38:35;49.40;;;28.40;;
27533;SDS011;14973;51.460;7.008;2022-08-01T03:41:09;47.10;;;27.25;;
27533;SDS011;14973;51.460;7.008;2022-08-01T03:43:46;56.15;;;26.92;;
27533;SDS011;14973;51.460;7.008;2022-08-01T03:46:40;40.53;;;24.02;;
27533;SDS011;14973;51.460;7.008;2022-08-01T03:49:12;45.35;;;26.42;;
27533;SDS011;14973;51.460;7.008;2022-08-01T03:51:40;50.08;;;26.08;;
27533;SDS011;14973;51.460;7.008;2022-08-01T03:54:06;54.13;;;26.92;;
27533;SDS011;14973;51.460;7.008;2022-08-01T03:56:35;47.60;;;26.00;;
27533;SDS011;14973;51.460;7.008;2022-08-01T03:59:02;41.83;;;24.45;;
27533;SDS011;14973;51.460;7.008;2022-08-01T04:01:28;50.17;;;26.33;;
27533;SDS011;14973;51.460;7.008;2022-08-01T04:03:57;39.97;;;24.30;;
27533;SDS011;14973;51.460;7.008;2022-08-01T04:06:24;42.58;;;24.15;;
27533;SDS011;14973;51.460;7.008;2022-08-01T04:08:50;46.67;;;24.98;;
27533;SDS011;14973;51.460;7.008;2022-08-01T04:11:25;34.25;;;22.20;;
27533;SDS011;14973;51.460;7.008;2022-08-01T04:13:53;48.13;;;23.95;;
27533;SDS011;14973;51.460;7.008;2022-08-01T04:16:19;35.17;;;22.75;;
27533;SDS011;14973;51.460;7.008;2022-08-01T04:18:46;38.17;;;21.90;;
27533;SDS011;14973;51.460;7.008;2022-08-01T04:21:12;32.53;;;19.08;;
27533;SDS011;14973;51.460;7.008;2022-08-01T04:23:39;32.28;;;20.10;;
27533;SDS011;14973;51.460;7.008;2022-08-01T04:26:08;37.33;;;19.58;;
27533;SDS011;14973;51.460;7.008;2022-08-01T04:28:36;33.92;;;19.48;;
27533;SDS011;14973;51.460;7.008;2022-08-01T04:31:03;30.38;;;18.98;;
27533;SDS011;14973;51.460;7.008;2022-08-01T04:33:34;29.73;;;18.73;;
27533;SDS011;14973;51.460;7.008;2022-08-01T04:36:01;31.27;;;19.80;;
27533;SDS011;14973;51.460;7.008;2022-08-01T04:38:29;39.70;;;21.40;;
27533;SDS011;14973;51.460;7.008;2022-08-01T04:40:56;36.05;;;19.88;;
27533;SDS011;14973;51.460;7.008;2022-08-01T04:43:23;35.75;;;18.92;;
27533;SDS011;14973;51.460;7.008;2022-08-01T04:45:49;37.00;;;20.55;;
27533;SDS011;14973;51.460;7.008;2022-08-01T04:48:17;31.25;;;19.33;;
27533;SDS011;14973;51.460;7.008;2022-08-01T04:50:46;37.65;;;19.77;;
27533;SDS011;14973;51.460;7.008;2022-08-01T04:53:15;34.70;;;19.33;;
27533;SDS011;14973;51.460;7.008;2022-08-01T04:55:43;42.03;;;20.40;;
27533;SDS011;14973;51.460;7.008;2022-08-01T04:58:10;38.17;;;20.20;;
27533;SDS011;14973;51.460;7.008;2022-08-01T05:00:36;28.88;;;19.42;;
27533;SDS011;14973;51.460;7.008;2022-08-01T05:03:02;35.92;;;20.35;;
27533;SDS011;14973;51.460;7.008;2022-08-01T05:05:27;31.77;;;19.73;;
27533;SDS011;14973;51.460;7.008;2022-08-01T05:07:53;31.92;;;18.40;;
27533;SDS011;14973;51.460;7.008;2022-08-01T05:10:19;32.35;;;20.15;;
27533;SDS011;14973;51.460;7.008;2022-08-01T05:12:44;36.60;;;22.52;;
27533;SDS011;14973;51.460;7.008;2022-08-01T05:15:11;38.47;;;21.48;;
27533;SDS011;14973;51.460;7.008;2022-08-01T05:17:37;35.78;;;22.27;;
27533;SDS011;14973;51.460;7.008;2022-08-01T05:20:02;32.15;;;21.63;;
27533;SDS011;14973;51.460;7.008;2022-08-01T05:22:28;35.33;;;20.55;;
27533;SDS011;14973;51.460;7.008;2022-08-01T05:24:54;31.40;;;18.92;;
27533;SDS011;14973;51.460;7.008;2022-08-01T05:27:19;29.38;;;18.70;;
27533;SDS011;14973;51.460;7.008;2022-08-01T05:29:45;31.45;;;18.98;;
27533;SDS011;14973;51.460;7.008;2022-08-01T05:32:11;37.65;;;20.55;;
27533;SDS011;14973;51.460;7.008;2022-08-01T05:34:36;31.83;;;19.60;;
27533;SDS011;14973;51.460;7.008;2022-08-01T05:37:02;37.00;;;18.92;;
27533;SDS011;14973;51.460;7.008;2022-08-01T05:39:28;32.15;;;19.15;;
27533;SDS011;14973;51.460;7.008;2022-08-01T05:41:53;34.35;;;19.00;;
27533;SDS011;14973;51.460;7.008;2022-08-01T05:44:19;30.80;;;17.85;;
27533;SDS011;14973;51.460;7.008;2022-08-01T05:46:45;33.47;;;19.23;;
27533;SDS011;14973;51.460;7.008;2022-08-01T05:49:11;30.60;;;17.10;;
27533;SDS011;14973;51.460;7.008;2022-08-01T05:51:36;31.55;;;17.35;;
27533;SDS011;14973;51.460;7.008;2022-08-01T05:54:02;26.80;;;16.10;;
27533;SDS011;14973;51.460;7.008;2022-08-01T05:56:29;26.13;;;16.27;;
27533;SDS011;14973;51.460;7.008;2022-08-01T05:58:55;35.17;;;21.90;;
27533;SDS011;14973;51.460;7.008;2022-08-01T06:01:20;35.45;;;19.95;;
27533;SDS011;14973;51.460;7.008;2022-08-01T06:03:46;26.45;;;15.57;;
27533;SDS011;14973;51.460;7.008;2022-08-01T06:06:12;43.22;;;26.63;;
27533;SDS011;14973;51.460;7.008;2022-08-01T06:08:39;33.03;;;19.25;;
27533;SDS011;14973;51.460;7.008;2022-08-01T06:11:05;23.92;;;16.58;;
27533;SDS011;14973;51.460;7.008;2022-08-01T06:13:31;21.58;;;14.80;;
27533;SDS011;14973;51.460;7.008;2022-08-01T06:15:57;31.55;;;15.63;;
27533;SDS011;14973;51.460;7.008;2022-08-01T06:18:23;24.58;;;14.63;;
27533;SDS011;14973;51.460;7.008;2022-08-01T06:20:49;19.42;;;12.52;;
27533;SDS011;14973;51.460;7.008;2022-08-01T06:23:15;20.45;;;12.40;;
27533;SDS011;14973;51.460;7.008;2022-08-01T06:25:41;19.50;;;11.85;;
27533;SDS011;14973;51.460;7.008;2022-08-01T06:28:09;15.68;;;10.00;;
27533;SDS011;14973;51.460;7.008;2022-08-01T06:30:35;16.02;;;10.70;;
27533;SDS011;14973;51.460;7.008;2022-08-01T06:33:01;19.10;;;11.85;;
27533;SDS011;14973;51.460;7.008;2022-08-01T06:35:27;19.75;;;12.30;;
27533;SDS011;14973;51.460;7.008;2022-08-01T06:37:54;17.38;;;9.07;;
27533;SDS011;14973;51.460;7.008;2022-08-01T06:40:20;14.52;;;9.20;;
27533;SDS011;14973;51.460;7.008;2022-08-01T06:42:46;15.82;;;9.60;;
27533;SDS011;14973;51.460;7.008;2022-08-01T06:45:12;15.38;;;9.20;;
27533;SDS011;14973;51.460;7.008;2022-08-01T06:47:39;22.73;;;9.68;;
27533;SDS011;14973;51.460;7.008;2022-08-01T06:50:06;12.45;;;7.25;;
27533;SDS011;14973;51.460;7.008;2022-08-01T06:52:33;16.02;;;7.32;;
27533;SDS011;14973;51.460;7.008;2022-08-01T06:55:00;13.60;;;7.13;;
27533;SDS011;14973;51.460;7.008;2022-08-01T06:57:27;16.38;;;7.85;;
27533;SDS011;14973;51.460;7.008;2022-08-01T06:59:53;10.75;;;7.32;;
27533;SDS011;14973;51.460;7.008;2022-08-01T07:02:19;16.55;;;9.68;;
27533;SDS011;14973;51.460;7.008;2022-08-01T07:04:45;26.08;;;11.00;;
27533;SDS011;14973;51.460;7.008;2022-08-01T07:07:10;20.65;;;10.45;;
27533;SDS011;14973;51.460;7.008;2022-08-01T07:09:36;19.80;;;9.48;;
27533;SDS011;14973;51.460;7.008;2022-08-01T07:12:02;18.02;;;9.75;;
27533;SDS011;14973;51.460;7.008;2022-08-01T07:14:29;19.10;;;9.70;;
27533;SDS011;14973;51.460;7.008;2022-08-01T07:16:54;15.50;;;8.35;;
27533;SDS011;14973;51.460;7.008;2022-08-01T07:19:20;14.30;;;7.93;;
27533;SDS011;14973;51.460;7.008;2022-08-01T07:21:45;15.82;;;8.18;;
27533;SDS011;14973;51.460;7.008;2022-08-01T07:24:12;18.95;;;7.93;;
27533;SDS011;14973;51.460;7.008;2022-08-01T07:26:39;14.00;;;7.95;;
27533;SDS011;14973;51.460;7.008;2022-08-01T07:29:09;14.57;;;7.38;;
27533;SDS011;14973;51.460;7.008;2022-08-01T07:31:35;24.02;;;9.32;;
27533;SDS011;14973;51.460;7.008;2022-08-01T07:34:00;18.08;;;10.20;;
27533;SDS011;14973;51.460;7.008;2022-08-01T07:36:26;22.85;;;8.60;;
27533;SDS011;14973;51.460;7.008;2022-08-01T07:38:52;15.65;;;8.70;;
27533;SDS011;14973;51.460;7.008;2022-08-01T07:41:17;13.18;;;7.05;;
27533;SDS011;14973;51.460;7.008;2022-08-01T07:43:43;16.05;;;6.75;;
27533;SDS011;14973;51.460;7.008;2022-08-01T07:46:09;15.65;;;6.43;;
27533;SDS011;14973;51.460;7.008;2022-08-01T07:48:34;17.00;;;5.88;;
27533;SDS011;14973;51.460;7.008;2022-08-01T07:51:00;13.35;;;5.00;;
27533;SDS011;14973;51.460;7.008;2022-08-01T07:53:25;14.85;;;4.60;;
27533;SDS011;14973;51.460;7.008;2022-08-01T07:55:51;11.75;;;4.03;;
27533;SDS011;14973;51.460;7.008;2022-08-01T07:58:17;4.22;;;2.58;;
27533;SDS011;14973;51.460;7.008;2022-08-01T08:00:43;5.18;;;2.50;;
27533;SDS011;14973;51.460;7.008;2022-08-01T08:03:08;5.53;;;2.25;;
27533;SDS011;14973;51.460;7.008;2022-08-01T08:05:34;5.80;;;2.53;;
27533;SDS011;14973;51.460;7.008;2022-08-01T08:08:01;6.22;;;3.63;;
27533;SDS011;14973;51.460;7.008;2022-08-01T08:10:30;10.70;;;4.50;;
27533;SDS011;14973;51.460;7.008;2022-08-01T08:12:56;5.80;;;3.75;;
27533;SDS011;14973;51.460;7.008;2022-08-01T08:15:21;6.43;;;3.72;;
27533;SDS011;14973;51.460;7.008;2022-08-01T08:17:48;5.53;;;3.05;;
27533;SDS011;14973;51.460;7.008;2022-08-01T08:20:13;7.18;;;3.30;;
27533;SDS011;14973;51.460;7.008;2022-08-01T08:22:39;6.65;;;2.00;;
27533;SDS011;14973;51.460;7.008;2022-08-01T08:25:05;4.78;;;2.35;;
27533;SDS011;14973;51.460;7.008;2022-08-01T08:27:31;3.05;;;1.92;;
27533;SDS011;14973;51.460;7.008;2022-08-01T08:29:56;8.75;;;2.10;;
27533;SDS011;14973;51.460;7.008;2022-08-01T08:32:22;18.58;;;4.28;;
27533;SDS011;14973;51.460;7.008;2022-08-01T08:34:48;3.78;;;3.38;;
27533;SDS011;14973;51.460;7.008;2022-08-01T08:37:13;10.68;;;3.92;;
27533;SDS011;14973;51.460;7.008;2022-08-01T08:39:39;7.03;;;3.80;;
27533;SDS011;14973;51.460;7.008;2022-08-01T08:42:06;13.88;;;3.70;;
27533;SDS011;14973;51.460;7.008;2022-08-01T08:44:32;5.78;;;3.13;;
27533;SDS011;14973;51.460;7.008;2022-08-01T08:46:58;7.90;;;3.10;;
27533;SDS011;14973;51.460;7.008;2022-08-01T08:49:26;2.60;;;1.98;;
27533;SDS011;14973;51.460;7.008;2022-08-01T08:51:56;4.70;;;2.10;;
27533;SDS011;14973;51.460;7.008;2022-08-01T08:54:23;3.60;;;1.58;;
27533;SDS011;14973;51.460;7.008;2022-08-01T08:56:50;2.50;;;1.85;;
27533;SDS011;14973;51.460;7.008;2022-08-01T08:59:19;5.18;;;2.28;;
27533;SDS011;14973;51.460;7.008;2022-08-01T09:01:49;3.03;;;2.67;;
27533;SDS011;14973;51.460;7.008;2022-08-01T09:04:14;3.47;;;2.20;;
27533;SDS011;14973;51.460;7.008;2022-08-01T09:06:40;2.55;;;1.80;;
27533;SDS011;14973;51.460;7.008;2022-08-01T09:09:09;13.90;;;2.00;;
27533;SDS011;14973;51.460;7.008;2022-08-01T09:11:35;4.55;;;1.40;;
27533;SDS011;14973;51.460;7.008;2022-08-01T09:14:09;3.72;;;1.27;;
27533;SDS011;14973;51.460;7.008;2022-08-01T09:16:35;1.42;;;1.30;;
27533;SDS011;14973;51.460;7.008;2022-08-01T09:19:08;1.88;;;1.17;;
27533;SDS011;14973;51.460;7.008;2022-08-01T09:21:40;1.88;;;1.23;;
27533;SDS011;14973;51.460;7.008;2022-08-01T09:24:21;3.05;;;1.23;;
27533;SDS011;14973;51.460;7.008;2022-08-01T09:26:46;1.95;;;0.90;;
27533;SDS011;14973;51.460;7.008;2022-08-01T09:32:05;2.45;;;0.88;;
27533;SDS011;14973;51.460;7.008;2022-08-01T09:34:31;1.63;;;0.90;;
27533;SDS011;14973;51.460;7.008;2022-08-01T09:37:01;1.60;;;1.15;;
27533;SDS011;14973;51.460;7.008;2022-08-01T09:39:33;3.22;;;1.42;;
27533;SDS011;14973;51.460;7.008;2022-08-01T09:42:18;1.08;;;0.95;;
27533;SDS011;14973;51.460;7.008;2022-08-01T09:44:46;1.70;;;0.70;;
27533;SDS011;14973;51.460;7.008;2022-08-01T09:47:12;1.13;;;1.00;;
27533;SDS011;14973;51.460;7.008;2022-08-01T09:49:39;2.60;;;0.90;;
27533;SDS011;14973;51.460;7.008;2022-08-01T09:54:42;1.95;;;1.10;;
27533;SDS011;14973;51.460;7.008;2022-08-01T09:57:16;2.20;;;1.13;;
27533;SDS011;14973;51.460;7.008;2022-08-01T09:59:44;1.70;;;1.27;;
27533;SDS011;14973;51.460;7.008;2022-08-01T10:02:12;4.30;;;1.50;;
27533;SDS011;14973;51.460;7.008;2022-08-01T10:04:58;1.90;;;1.42;;
27533;SDS011;14973;51.460;7.008;2022-08-01T10:07:25;2.22;;;1.65;;
27533;SDS011;14973;51.460;7.008;2022-08-01T10:09:53;2.30;;;1.50;;
27533;SDS011;14973;51.460;7.008;2022-08-01T10:12:22;1.60;;;1.30;;
27533;SDS011;14973;51.460;7.008;2022-08-01T10:14:51;2.33;;;1.60;;
27533;SDS011;14973;51.460;7.008;2022-08-01T10:17:19;2.72;;;1.75;;
27533;SDS011;14973;51.460;7.008;2022-08-01T10:19:45;3.70;;;1.50;;
27533;SDS011;14973;51.460;7.008;2022-08-01T10:22:15;1.95;;;1.70;;
27533;SDS011;14973;51.460;7.008;2022-08-01T10:24:43;5.82;;;1.55;;
27533;SDS011;14973;51.460;7.008;2022-08-01T10:27:11;6.45;;;1.80;;
27533;SDS011;14973;51.460;7.008;2022-08-01T10:29:58;3.95;;;1.95;;
27533;SDS011;14973;51.460;7.008;2022-08-01T10:32:33;9.32;;;1.42;;
27533;SDS011;14973;51.460;7.008;2022-08-01T10:35:00;3.13;;;1.02;;
27533;SDS011;14973;51.460;7.008;2022-08-01T10:37:28;2.05;;;1.20;;
27533;SDS011;14973;51.460;7.008;2022-08-01T10:39:54;6.80;;;1.13;;
27533;SDS011;14973;51.460;7.008;2022-08-01T10:42:20;5.57;;;1.33;;
27533;SDS011;14973;51.460;7.008;2022-08-01T10:44:46;3.60;;;1.00;;
27533;SDS011;14973;51.460;7.008;2022-08-01T10:47:13;4.50;;;0.90;;
27533;SDS011;14973;51.460;7.008;2022-08-01T10:49:47;3.22;;;1.17;;
27533;SDS011;14973;51.460;7.008;2022-08-01T10:52:19;4.18;;;0.98;;
27533;SDS011;14973;51.460;7.008;2022-08-01T10:54:45;3.88;;;1.00;;
27533;SDS011;14973;51.460;7.008;2022-08-01T10:57:12;4.60;;;1.08;;
27533;SDS011;14973;51.460;7.008;2022-08-01T10:59:48;2.63;;;1.10;;
27533;SDS011;14973;51.460;7.008;2022-08-01T11:02:26;4.07;;;1.60;;
27533;SDS011;14973;51.460;7.008;2022-08-01T11:04:54;4.93;;;2.72;;
27533;SDS011;14973;51.460;7.008;2022-08-01T11:07:24;15.02;;;2.92;;
27533;SDS011;14973;51.460;7.008;2022-08-01T11:10:10;2.22;;;1.17;;
27533;SDS011;14973;51.460;7.008;2022-08-01T11:12:40;5.10;;;0.88;;
27533;SDS011;14973;51.460;7.008;2022-08-01T11:20:17;0.85;;;0.65;;
27533;SDS011;14973;51.460;7.008;2022-08-01T11:30:49;1.75;;;1.00;;
27533;SDS011;14973;51.460;7.008;2022-08-01T11:33:17;4.35;;;0.75;;
27533;SDS011;14973;51.460;7.008;2022-08-01T11:41:15;4.22;;;1.00;;
27533;SDS011;14973;51.460;7.008;2022-08-01T11:52:24;1.52;;;0.70;;
27533;SDS011;14973;51.460;7.008;2022-08-01T11:54:55;0.50;;;0.50;;
27533;SDS011;14973;51.460;7.008;2022-08-01T11:59:56;3.45;;;0.88;;
27533;SDS011;14973;51.460;7.008;2022-08-01T12:02:29;2.35;;;0.90;;
27533;SDS011;14973;51.460;7.008;2022-08-01T12:07:28;0.70;;;0.68;;
27533;SDS011;14973;51.460;7.008;2022-08-01T12:12:32;6.47;;;0.90;;
27533;SDS011;14973;51.460;7.008;2022-08-01T12:15:00;5.38;;;0.60;;
27533;SDS011;14973;51.460;7.008;2022-08-01T12:17:41;2.25;;;1.08;;
27533;SDS011;14973;51.460;7.008;2022-08-01T12:20:09;2.63;;;0.82;;
27533;SDS011;14973;51.460;7.008;2022-08-01T12:22:37;1.27;;;0.88;;
27533;SDS011;14973;51.460;7.008;2022-08-01T12:27:32;7.85;;;6.25;;
27533;SDS011;14973;51.460;7.008;2022-08-01T12:29:58;3.33;;;1.15;;
27533;SDS011;14973;51.460;7.008;2022-08-01T12:32:31;1.55;;;1.35;;
27533;SDS011;14973;51.460;7.008;2022-08-01T12:35:07;3.90;;;1.30;;
27533;SDS011;14973;51.460;7.008;2022-08-01T12:37:41;6.32;;;1.40;;
27533;SDS011;14973;51.460;7.008;2022-08-01T12:40:22;2.13;;;0.90;;
27533;SDS011;14973;51.460;7.008;2022-08-01T12:42:49;3.92;;;0.90;;
27533;SDS011;14973;51.460;7.008;2022-08-01T12:45:44;3.35;;;0.95;;
27533;SDS011;14973;51.460;7.008;2022-08-01T12:48:10;2.33;;;1.10;;
27533;SDS011;14973;51.460;7.008;2022-08-01T12:50:41;1.00;;;0.70;;
27533;SDS011;14973;51.460;7.008;2022-08-01T12:53:08;3.65;;;1.10;;
27533;SDS011;14973;51.460;7.008;2022-08-01T12:58:30;1.23;;;1.00;;
27533;SDS011;14973;51.460;7.008;2022-08-01T13:01:07;3.67;;;1.05;;
27533;SDS011;14973;51.460;7.008;2022-08-01T13:03:34;1.98;;;0.85;;
27533;SDS011;14973;51.460;7.008;2022-08-01T13:06:00;7.00;;;1.20;;
27533;SDS011;14973;51.460;7.008;2022-08-01T13:08:34;4.60;;;0.98;;
27533;SDS011;14973;51.460;7.008;2022-08-01T13:11:06;1.27;;;1.00;;
27533;SDS011;14973;51.460;7.008;2022-08-01T13:13:38;2.05;;;1.13;;
27533;SDS011;14973;51.460;7.008;2022-08-01T13:16:04;5.82;;;0.98;;
27533;SDS011;14973;51.460;7.008;2022-08-01T13:18:32;4.07;;;1.02;;
27533;SDS011;14973;51.460;7.008;2022-08-01T13:21:12;1.73;;;1.05;;
27533;SDS011;14973;51.460;7.008;2022-08-01T13:23:40;1.13;;;0.70;;
27533;SDS011;14973;51.460;7.008;2022-08-01T13:26:07;2.28;;;0.70;;
27533;SDS011;14973;51.460;7.008;2022-08-01T13:28:33;1.95;;;0.80;;
27533;SDS011;14973;51.460;7.008;2022-08-01T13:31:05;2.40;;;1.08;;
27533;SDS011;14973;51.460;7.008;2022-08-01T13:36:11;8.55;;;1.30;;
27533;SDS011;14973;51.460;7.008;2022-08-01T13:38:37;10.23;;;1.50;;
27533;SDS011;14973;51.460;7.008;2022-08-01T13:41:23;3.65;;;1.50;;
27533;SDS011;14973;51.460;7.008;2022-08-01T13:43:48;6.07;;;1.38;;
27533;SDS011;14973;51.460;7.008;2022-08-01T13:46:15;2.05;;;1.42;;
27533;SDS011;14973;51.460;7.008;2022-08-01T13:48:41;3.83;;;1.30;;
27533;SDS011;14973;51.460;7.008;2022-08-01T13:51:06;5.00;;;1.30;;
27533;SDS011;14973;51.460;7.008;2022-08-01T13:53:32;1.45;;;1.17;;
27533;SDS011;14973;51.460;7.008;2022-08-01T13:55:58;3.85;;;1.42;;
27533;SDS011;14973;51.460;7.008;2022-08-01T13:58:23;3.45;;;1.50;;
27533;SDS011;14973;51.460;7.008;2022-08-01T14:00:49;5.20;;;1.67;;
27533;SDS011;14973;51.460;7.008;2022-08-01T14:03:15;3.03;;;1.23;;
27533;SDS011;14973;51.460;7.008;2022-08-01T14:05:44;2.20;;;1.40;;
27533;SDS011;14973;51.460;7.008;2022-08-01T14:08:09;1.80;;;1.05;;
27533;SDS011;14973;51.460;7.008;2022-08-01T14:10:35;1.95;;;1.20;;
27533;SDS011;14973;51.460;7.008;2022-08-01T14:13:01;1.65;;;1.35;;
27533;SDS011;14973;51.460;7.008;2022-08-01T14:15:26;4.55;;;1.90;;
27533;SDS011;14973;51.460;7.008;2022-08-01T14:17:52;3.70;;;1.70;;
27533;SDS011;14973;51.460;7.008;2022-08-01T14:20:18;4.50;;;1.50;;
27533;SDS011;14973;51.460;7.008;2022-08-01T14:22:47;6.38;;;1.70;;
27533;SDS011;14973;51.460;7.008;2022-08-01T14:25:13;4.60;;;1.60;;
27533;SDS011;14973;51.460;7.008;2022-08-01T14:27:39;2.00;;;1.17;;
27533;SDS011;14973;51.460;7.008;2022-08-01T14:30:06;6.47;;;1.60;;
27533;SDS011;14973;51.460;7.008;2022-08-01T14:32:33;1.95;;;1.40;;
27533;SDS011;14973;51.460;7.008;2022-08-01T14:34:59;2.05;;;1.60;;
27533;SDS011;14973;51.460;7.008;2022-08-01T14:37:26;2.50;;;1.70;;
27533;SDS011;14973;51.460;7.008;2022-08-01T14:39:53;7.80;;;1.85;;
27533;SDS011;14973;51.460;7.008;2022-08-01T14:42:19;5.60;;;1.60;;
27533;SDS011;14973;51.460;7.008;2022-08-01T14:44:44;2.97;;;1.65;;
27533;SDS011;14973;51.460;7.008;2022-08-01T14:47:10;4.68;;;1.80;;
27533;SDS011;14973;51.460;7.008;2022-08-01T14:49:36;10.40;;;1.95;;
27533;SDS011;14973;51.460;7.008;2022-08-01T14:52:01;7.68;;;2.20;;
27533;SDS011;14973;51.460;7.008;2022-08-01T14:54:27;2.47;;;1.65;;
27533;SDS011;14973;51.460;7.008;2022-08-01T14:56:53;1.77;;;1.42;;
27533;SDS011;14973;51.460;7.008;2022-08-01T14:59:19;4.43;;;1.65;;
27533;SDS011;14973;51.460;7.008;2022-08-01T15:01:45;2.60;;;1.52;;
27533;SDS011;14973;51.460;7.008;2022-08-01T15:04:10;9.20;;;2.05;;
27533;SDS011;14973;51.460;7.008;2022-08-01T15:06:36;5.00;;;2.55;;
27533;SDS011;14973;51.460;7.008;2022-08-01T15:09:02;5.53;;;2.03;;
27533;SDS011;14973;51.460;7.008;2022-08-01T15:11:28;7.35;;;2.38;;
27533;SDS011;14973;51.460;7.008;2022-08-01T15:13:54;6.03;;;2.40;;
27533;SDS011;14973;51.460;7.008;2022-08-01T15:16:38;3.93;;;2.17;;
27533;SDS011;14973;51.460;7.008;2022-08-01T15:19:04;3.80;;;1.80;;
27533;SDS011;14973;51.460;7.008;2022-08-01T15:21:30;3.63;;;1.50;;
27533;SDS011;14973;51.460;7.008;2022-08-01T15:23:55;6.68;;;1.67;;
27533;SDS011;14973;51.460;7.008;2022-08-01T15:26:21;4.03;;;1.90;;
27533;SDS011;14973;51.460;7.008;2022-08-01T15:28:47;6.35;;;2.40;;
27533;SDS011;14973;51.460;7.008;2022-08-01T15:31:12;5.22;;;2.17;;
27533;SDS011;14973;51.460;7.008;2022-08-01T15:33:38;5.57;;;2.30;;
27533;SDS011;14973;51.460;7.008;2022-08-01T15:36:04;3.35;;;2.20;;
27533;SDS011;14973;51.460;7.008;2022-08-01T15:38:30;7.35;;;2.10;;